SBOSBO GCM / MWCR
Speedbird OnlineSpeedbird Online GCM / MWCR

Owen Roberts International Airport
14:59 30°C

Location Georgetown, Cayman Islands
Latitude: 19.292800903299998
Longitude: -81.3576965332
Local Time 14:59 on 20 Apr 2024
UTC -5 hours (America/Cayman)
Currency £1 equals KYD 1.03
METAR MWCR 201900Z 05012KT 9999 FEW018 30/23 Q1014
TAF TAF MWCR 201700Z 2018/2118 06013KT 9999 FEW018
Weather As Of 20 Apr 2024 14:59
Description Few clouds
Wind 22 km/h from North-East (50°)
Cloud Cover 20%
Precipitation Rain: none, Snow: none
Sunrise 06:03
Sunset 18:44
Rotations During the last 90 days there were
50 flights from NAS
61 flights to NAS
Web Wikipedia
Codes IATA: GCM
ICAO: MWCR
Altitude 2 Meter / 8 Feet
Distance 7,760 KM / 4,822 Miles
from London.
Runways
RunwayLength (m)Surface
082140Asphalt
262140Asphalt
Radio
TypeDescriptionFrequency
A/DGRAND CAYMAN APP120.2
ATISATIS132.35
CNTRKINGSTON CON128.1
GNDGND121.9
TWRTWR118
Live ATC



Support Speedbird Online

© 2017-2024 Speedbird Online